Time,TemperatureF,DewpointF,PressureIn,WindDirection,WindDirectionDegrees,WindSpeedMPH,WindSpeedGustMPH,Humidity,HourlyPrecipIn,Conditions,Clouds,dailyrainin,SoftwareType,DateUTC
2013-03-03 00:00:00,46.0,12.0,30.17,West,267,0.0,0.0,25,0.00,,,0.00,,2013-03-03 06:00:00,
2013-03-03 00:02:00,45.0,11.0,30.19,SSW,193,0.0,0.0,25,0.00,,,0.00,,2013-03-03 06:02:00,
2013-03-03 00:11:00,45.0,11.0,30.19,SSW,193,0.0,0.0,25,0.00,,,0.00,,2013-03-03 06:11:00,
2013-03-03 00:21:00,46.0,12.0,30.17,West,267,0.0,0.0,25,0.00,,,0.00,,2013-03-03 06:21:00,
2013-03-03 00:31:00,46.0,12.0,30.17,West,267,0.0,0.0,25,0.00,,,0.00,,2013-03-03 06:31:00,
2013-03-03 00:42:00,46.0,12.0,30.17,West,267,0.0,0.0,25,0.00,,,0.00,,2013-03-03 06:42:00,
2013-03-03 00:52:00,46.0,12.0,30.17,West,267,0.0,0.0,25,0.00,,,0.00,,2013-03-03 06:52:00,
2013-03-03 07:52:00,43.0,11.0,30.08,WNW,284,0.0,0.0,27,0.00,,,0.00,,2013-03-03 13:52:00,
2013-03-03 08:02:00,43.0,11.0,30.08,WNW,284,0.0,0.0,27,0.00,,,0.00,,2013-03-03 14:02:00,
2013-03-03 08:11:00,43.0,11.0,30.08,WNW,284,0.0,0.0,27,0.00,,,0.00,,2013-03-03 14:11:00,
2013-03-03 08:21:00,44.0,12.0,30.09,SW,234,0.0,6.0,27,0.00,,,0.00,,2013-03-03 14:21:00,
2013-03-03 08:32:00,44.0,12.0,30.09,SW,234,0.0,6.0,27,0.00,,,0.00,,2013-03-03 14:32:00,
2013-03-03 08:42:00,44.0,12.0,30.09,SW,234,0.0,6.0,27,0.00,,,0.00,,2013-03-03 14:42:00,
2013-03-03 08:52:00,50.0,13.0,30.11,West,264,1.0,10.0,22,0.00,,,0.00,,2013-03-03 14:52:00,
2013-03-03 09:01:00,50.0,13.0,30.11,West,264,1.0,10.0,22,0.00,,,0.00,,2013-03-03 15:01:00,
2013-03-03 09:11:00,50.0,13.0,30.11,West,264,1.0,10.0,22,0.00,,,0.00,,2013-03-03 15:11:00,
2013-03-03 09:22:00,54.0,14.0,30.10,SSW,202,8.0,12.0,20,0.00,,,0.00,,2013-03-03 15:22:00,
2013-03-03 09:32:00,54.0,14.0,30.10,SSW,202,8.0,12.0,20,0.00,,,0.00,,2013-03-03 15:32:00,
2013-03-03 09:42:00,54.0,14.0,30.10,SSW,202,8.0,12.0,20,0.00,,,0.00,,2013-03-03 15:42:00,
2013-03-03 09:52:00,57.0,13.0,30.11,SW,216,5.0,12.0,17,0.00,,,0.00,,2013-03-03 15:52:00,
2013-03-03 10:01:00,57.0,13.0,30.11,SW,216,5.0,12.0,17,0.00,,,0.00,,2013-03-03 16:01:00,
2013-03-03 10:12:00,57.0,13.0,30.11,SW,216,5.0,12.0,17,0.00,,,0.00,,2013-03-03 16:12:00,
2013-03-03 10:21:00,60.0,14.0,30.10,SW,224,7.0,16.0,16,0.00,,,0.00,,2013-03-03 16:21:00,
2013-03-03 10:31:00,60.0,14.0,30.10,SW,224,7.0,16.0,16,0.00,,,0.00,,2013-03-03 16:31:00,
2013-03-03 10:42:00,60.0,14.0,30.10,SW,224,7.0,16.0,16,0.00,,,0.00,,2013-03-03 16:42:00,
2013-03-03 10:52:00,62.0,14.0,30.11,West,275,6.0,14.0,15,0.00,,,0.00,,2013-03-03 16:52:00,
2013-03-03 11:01:00,62.0,14.0,30.11,West,275,6.0,14.0,15,0.00,,,0.00,,2013-03-03 17:01:00,
2013-03-03 11:11:00,64.0,15.0,30.09,SW,232,4.0,12.0,15,0.00,,,0.00,,2013-03-03 17:11:00,
2013-03-03 11:22:00,64.0,15.0,30.09,SW,232,4.0,12.0,15,0.00,,,0.00,,2013-03-03 17:22:00,
2013-03-03 11:32:00,64.0,15.0,30.09,SW,232,4.0,12.0,15,0.00,,,0.00,,2013-03-03 17:32:00,
2013-03-03 11:42:00,64.0,15.0,30.09,SW,232,4.0,12.0,15,0.00,,,0.00,,2013-03-03 17:42:00,
2013-03-03 11:52:00,68.0,15.0,30.07,WSW,250,2.0,13.0,13,0.00,,,0.00,,2013-03-03 17:52:00,
2013-03-03 12:01:00,68.0,15.0,30.07,WSW,250,2.0,13.0,13,0.00,,,0.00,,2013-03-03 18:01:00,
2013-03-03 12:11:00,68.0,15.0,30.07,WSW,250,2.0,13.0,13,0.00,,,0.00,,2013-03-03 18:11:00,
2013-03-03 12:21:00,69.0,16.0,30.06,South,176,1.0,12.0,13,0.00,,,0.00,,2013-03-03 18:21:00,
2013-03-03 12:32:00,69.0,16.0,30.06,South,176,1.0,12.0,13,0.00,,,0.00,,2013-03-03 18:32:00,
2013-03-03 12:42:00,69.0,16.0,30.06,South,176,1.0,12.0,13,0.00,,,0.00,,2013-03-03 18:42:00,
2013-03-03 12:52:00,72.0,15.0,30.03,WNW,282,9.0,19.0,11,0.00,,,0.00,,2013-03-03 18:52:00,
2013-03-03 13:01:00,72.0,15.0,30.03,WNW,282,9.0,19.0,11,0.00,,,0.00,,2013-03-03 19:01:00,
2013-03-03 13:11:00,72.0,15.0,30.03,WNW,282,9.0,19.0,11,0.00,,,0.00,,2013-03-03 19:11:00,
2013-03-03 13:21:00,73.0,15.0,30.02,SW,224,3.0,28.0,11,0.00,,,0.00,,2013-03-03 19:21:00,
2013-03-03 13:32:00,73.0,15.0,30.02,SW,224,3.0,28.0,11,0.00,,,0.00,,2013-03-03 19:32:00,
2013-03-03 13:42:00,73.0,15.0,30.02,SW,224,3.0,28.0,11,0.00,,,0.00,,2013-03-03 19:42:00,
2013-03-03 13:52:00,75.0,12.0,30.00,WNW,294,1.0,17.0,9,0.00,,,0.00,,2013-03-03 19:52:00,
2013-03-03 14:01:00,75.0,12.0,30.00,WNW,294,1.0,17.0,9,0.00,,,0.00,,2013-03-03 20:01:00,
2013-03-03 14:11:00,75.0,12.0,30.00,WNW,294,1.0,17.0,9,0.00,,,0.00,,2013-03-03 20:11:00,
2013-03-03 14:21:00,77.0,11.0,29.98,WSW,246,6.0,19.0,8,0.00,,,0.00,,2013-03-03 20:21:00,
2013-03-03 14:32:00,77.0,11.0,29.98,WSW,246,6.0,19.0,8,0.00,,,0.00,,2013-03-03 20:32:00,
2013-03-03 14:42:00,77.0,11.0,29.98,WSW,246,6.0,19.0,8,0.00,,,0.00,,2013-03-03 20:42:00,
2013-03-03 14:53:00,78.0,12.0,29.96,SW,224,5.0,24.0,8,0.00,,,0.00,,2013-03-03 20:53:00,
2013-03-03 15:01:00,78.0,12.0,29.96,SW,224,5.0,24.0,8,0.00,,,0.00,,2013-03-03 21:01:00,
2013-03-03 15:11:00,78.0,12.0,29.96,SW,224,5.0,24.0,8,0.00,,,0.00,,2013-03-03 21:11:00,
2013-03-03 15:22:00,79.0,10.0,29.93,NW,304,9.0,22.0,7,0.00,,,0.00,,2013-03-03 21:22:00,
2013-03-03 15:32:00,79.0,10.0,29.93,NW,304,9.0,22.0,7,0.00,,,0.00,,2013-03-03 21:32:00,
2013-03-03 15:42:00,79.0,10.0,29.93,NW,304,9.0,22.0,7,0.00,,,0.00,,2013-03-03 21:42:00,
2013-03-03 15:52:00,78.0,9.0,29.94,West,268,8.0,22.0,7,0.00,,,0.00,,2013-03-03 21:52:00,
2013-03-03 16:01:00,78.0,9.0,29.94,West,268,8.0,22.0,7,0.00,,,0.00,,2013-03-03 22:01:00,
2013-03-03 16:11:00,78.0,9.0,29.94,West,268,8.0,22.0,7,0.00,,,0.00,,2013-03-03 22:11:00,
2013-03-03 16:22:00,78.0,9.0,29.93,WSW,258,6.0,21.0,7,0.00,,,0.00,,2013-03-03 22:22:00,
2013-03-03 16:32:00,78.0,9.0,29.93,WSW,258,6.0,21.0,7,0.00,,,0.00,,2013-03-03 22:32:00,
2013-03-03 16:42:00,78.0,9.0,29.93,WSW,258,6.0,21.0,7,0.00,,,0.00,,2013-03-03 22:42:00,
2013-03-03 16:52:00,76.0,7.0,29.91,SW,215,6.0,26.0,7,0.00,,,0.00,,2013-03-03 22:52:00,
2013-03-03 17:01:00,76.0,7.0,29.91,SW,215,6.0,26.0,7,0.00,,,0.00,,2013-03-03 23:01:00,
2013-03-03 17:11:00,76.0,7.0,29.91,SW,215,6.0,26.0,7,0.00,,,0.00,,2013-03-03 23:11:00,
2013-03-03 17:21:00,77.0,8.0,29.92,West,277,4.0,22.0,7,0.00,,,0.00,,2013-03-03 23:21:00,
2013-03-03 17:31:00,77.0,8.0,29.92,West,277,4.0,22.0,7,0.00,,,0.00,,2013-03-03 23:31:00,
2013-03-03 17:42:00,77.0,8.0,29.92,West,277,4.0,22.0,7,0.00,,,0.00,,2013-03-03 23:42:00,
2013-03-03 17:52:00,75.0,7.0,29.90,SW,220,9.0,20.0,7,0.00,,,0.00,,2013-03-03 23:52:00,
2013-03-03 18:01:00,75.0,7.0,29.90,SW,220,9.0,20.0,7,0.00,,,0.00,,2013-03-04 00:01:00,
2013-03-03 18:11:00,75.0,7.0,29.90,SW,220,9.0,20.0,7,0.00,,,0.00,,2013-03-04 00:11:00,
2013-03-03 18:21:00,74.0,6.0,29.89,WNW,282,1.0,16.0,7,0.00,,,0.00,,2013-03-04 00:21:00,
2013-03-03 18:32:00,74.0,6.0,29.89,WNW,282,1.0,16.0,7,0.00,,,0.00,,2013-03-04 00:32:00,
2013-03-03 18:42:00,74.0,6.0,29.89,WNW,282,1.0,16.0,7,0.00,,,0.00,,2013-03-04 00:42:00,
2013-03-03 18:52:00,71.0,9.0,29.90,WNW,299,0.0,17.0,9,0.00,,,0.00,,2013-03-04 00:52:00,
2013-03-03 19:00:00,67.0,9.0,29.89,South,186,0.0,2.0,10,0.00,,,0.00,,2013-03-04 01:00:00,
2013-03-03 19:01:00,71.0,9.0,29.90,WNW,299,0.0,17.0,9,0.00,,,0.00,,2013-03-04 01:01:00,
2013-03-03 19:11:00,71.0,9.0,29.90,WNW,299,0.0,17.0,9,0.00,,,0.00,,2013-03-04 01:11:00,
2013-03-03 19:21:00,67.0,9.0,29.89,South,186,0.0,2.0,10,0.00,,,0.00,,2013-03-04 01:21:00,
2013-03-03 19:32:00,67.0,9.0,29.89,South,186,0.0,2.0,10,0.00,,,0.00,,2013-03-04 01:32:00,
2013-03-03 19:42:00,67.0,9.0,29.89,South,186,0.0,2.0,10,0.00,,,0.00,,2013-03-04 01:42:00,
2013-03-03 19:52:00,67.0,9.0,29.89,South,186,0.0,2.0,10,0.00,,,0.00,,2013-03-04 01:52:00,
2013-03-03 20:22:00,64.0,8.0,29.91,West,275,0.0,1.0,11,0.00,,,0.00,,2013-03-04 02:22:00,
2013-03-03 20:32:00,64.0,8.0,29.91,West,275,0.0,1.0,11,0.00,,,0.00,,2013-03-04 02:32:00,
2013-03-03 20:42:00,64.0,8.0,29.91,West,275,0.0,1.0,11,0.00,,,0.00,,2013-03-04 02:42:00,
2013-03-03 20:52:00,63.0,8.0,29.91,NW,313,0.0,5.0,11,0.00,,,0.00,,2013-03-04 02:52:00,
2013-03-03 21:01:00,63.0,8.0,29.91,NW,313,0.0,5.0,11,0.00,,,0.00,,2013-03-04 03:01:00,
2013-03-03 21:11:00,63.0,8.0,29.91,NW,313,0.0,5.0,11,0.00,,,0.00,,2013-03-04 03:11:00,
2013-03-03 21:21:00,63.0,8.0,29.89,NW,323,0.0,0.0,11,0.00,,,0.00,,2013-03-04 03:21:00,
2013-03-03 21:32:00,63.0,8.0,29.89,NW,323,0.0,0.0,11,0.00,,,0.00,,2013-03-04 03:32:00,
2013-03-03 21:42:00,63.0,6.0,29.92,SSW,192,0.0,5.0,10,0.00,,,0.00,,2013-03-04 03:42:00,
2013-03-03 21:52:00,63.0,6.0,29.92,SSW,192,0.0,5.0,10,0.00,,,0.00,,2013-03-04 03:52:00,
2013-03-03 22:01:00,63.0,6.0,29.92,SSW,192,0.0,5.0,10,0.00,,,0.00,,2013-03-04 04:01:00,
2013-03-03 22:11:00,63.0,6.0,29.92,SSW,192,0.0,5.0,10,0.00,,,0.00,,2013-03-04 04:11:00,
2013-03-03 22:22:00,63.0,6.0,29.93,NNW,333,0.0,2.0,10,0.00,,,0.00,,2013-03-04 04:22:00,
2013-03-03 22:32:00,63.0,6.0,29.93,NNW,333,0.0,2.0,10,0.00,,,0.00,,2013-03-04 04:32:00,
2013-03-03 22:42:00,63.0,6.0,29.93,NNW,333,0.0,2.0,10,0.00,,,0.00,,2013-03-04 04:42:00,
2013-03-03 22:52:00,62.0,5.0,29.93,West,263,0.0,3.0,10,0.00,,,0.00,,2013-03-04 04:52:00,
2013-03-03 23:01:00,62.0,5.0,29.93,West,263,0.0,3.0,10,0.00,,,0.00,,2013-03-04 05:01:00,
2013-03-03 23:11:00,62.0,5.0,29.93,West,263,0.0,3.0,10,0.00,,,0.00,,2013-03-04 05:11:00,
2013-03-03 23:22:00,61.0,4.0,29.92,West,268,1.0,6.0,10,0.00,,,0.00,,2013-03-04 05:22:00,
2013-03-03 23:31:00,61.0,4.0,29.92,West,268,1.0,6.0,10,0.00,,,0.00,,2013-03-04 05:31:00,
2013-03-03 23:43:00,61.0,4.0,29.92,West,268,1.0,6.0,10,0.00,,,0.00,,2013-03-04 05:43:00,
2013-03-03 23:52:00,62.0,5.0,29.91,West,275,1.0,3.0,10,0.00,,,0.00,,2013-03-04 05:52:00,